createdAt,value
2018-05-10T00:00:47.899Z,1005.94
2018-05-10T00:01:56.737Z,1005.94
2018-05-10T00:03:05.578Z,1005.92
2018-05-10T00:04:14.417Z,1005.96
2018-05-10T00:05:23.537Z,1005.97
2018-05-10T00:06:32.376Z,1005.93
2018-05-10T00:07:41.211Z,1005.95
2018-05-10T00:08:50.407Z,1005.97
2018-05-10T00:09:59.245Z,1005.93
2018-05-10T00:11:08.362Z,1005.92
2018-05-10T00:12:17.201Z,1005.97
2018-05-10T00:13:26.317Z,1005.95
2018-05-10T00:14:35.155Z,1005.95
2018-05-10T00:15:43.994Z,1005.93
2018-05-10T00:16:52.840Z,1005.92
2018-05-10T00:18:02.057Z,1005.89
2018-05-10T00:19:10.900Z,1005.9
2018-05-10T00:20:19.738Z,1005.94
2018-05-10T00:21:28.577Z,1005.9
2018-05-10T00:22:37.421Z,1005.91
2018-05-10T00:23:46.411Z,1005.87
2018-05-10T00:24:55.575Z,1005.86
2018-05-10T00:26:04.418Z,1005.87
2018-05-10T00:27:13.257Z,1005.86
2018-05-10T00:28:22.091Z,1005.85
2018-05-10T00:29:31.080Z,1005.82
2018-05-10T00:30:40.206Z,1005.8
2018-05-10T00:31:49.045Z,1005.75
2018-05-10T00:32:57.882Z,1005.8
2018-05-10T00:34:06.719Z,1005.76
2018-05-10T00:35:15.907Z,1005.76
2018-05-10T00:36:24.743Z,1005.75
2018-05-10T00:37:33.580Z,1005.71
2018-05-10T00:38:42.693Z,1005.73
2018-05-10T00:39:51.531Z,1005.69
2018-05-10T00:41:00.367Z,1005.71
2018-05-10T00:42:09.492Z,1005.68
2018-05-10T00:43:18.339Z,1005.64
2018-05-10T00:44:27.178Z,1005.68
2018-05-10T00:45:36.015Z,1005.68
2018-05-10T00:46:44.952Z,1005.63
2018-05-10T00:47:53.787Z,1005.66
2018-05-10T00:49:02.625Z,1005.63
2018-05-10T00:50:11.737Z,1005.63
2018-05-10T00:51:20.578Z,1005.57
2018-05-10T00:52:29.465Z,1005.59
2018-05-10T00:53:38.304Z,1005.64
2018-05-10T00:54:47.142Z,1005.6
2018-05-10T00:55:55.977Z,1005.6
2018-05-10T00:57:04.812Z,1005.6
2018-05-10T00:58:13.848Z,1005.6
2018-05-10T00:59:22.686Z,1005.62
2018-05-10T01:00:31.803Z,1005.65
2018-05-10T01:01:40.641Z,1005.64
2018-05-10T01:02:49.480Z,1005.62
2018-05-10T01:03:58.942Z,1005.61
2018-05-10T01:05:07.779Z,1005.65
2018-05-10T01:06:16.616Z,1005.65
2018-05-10T01:07:25.728Z,1005.64
2018-05-10T01:08:34.566Z,1005.57
2018-05-10T01:09:43.826Z,1005.6
2018-05-10T01:10:52.662Z,1005.59
2018-05-10T01:12:01.499Z,1005.57
2018-05-10T01:13:10.435Z,1005.54
2018-05-10T01:14:19.275Z,1005.58
2018-05-10T01:15:28.263Z,1005.53
2018-05-10T01:16:37.101Z,1005.55
2018-05-10T01:17:45.940Z,1005.58
2018-05-10T01:18:54.777Z,1005.6
2018-05-10T01:20:03.890Z,1005.56
2018-05-10T01:21:13.021Z,1005.52
2018-05-10T01:22:21.858Z,1005.56
2018-05-10T01:23:30.693Z,1005.53
2018-05-10T01:24:39.530Z,1005.51
2018-05-10T01:25:48.641Z,1005.48
2018-05-10T01:26:57.630Z,1005.48
2018-05-10T01:28:06.467Z,1005.47
2018-05-10T01:29:15.306Z,1005.49
2018-05-10T01:30:24.138Z,1005.48
2018-05-10T01:31:33.246Z,1005.45
2018-05-10T01:32:42.087Z,1005.42
2018-05-10T01:33:50.924Z,1005.44
2018-05-10T01:34:59.761Z,1005.41
2018-05-10T01:36:08.870Z,1005.44
2018-05-10T01:37:17.990Z,1005.49
2018-05-10T01:38:27.179Z,1005.44
2018-05-10T01:39:36.015Z,1005.46
2018-05-10T01:40:44.855Z,1005.5
2018-05-10T01:41:53.690Z,1005.45
2018-05-10T01:43:02.808Z,1005.38
2018-05-10T01:44:11.694Z,1005.32
2018-05-10T01:45:20.531Z,1005.3
2018-05-10T01:46:29.366Z,1005.36
2018-05-10T01:47:38.202Z,1005.34
2018-05-10T01:48:47.038Z,1005.35
2018-05-10T01:49:56.150Z,1005.35
2018-05-10T01:51:05.266Z,1005.33
2018-05-10T01:52:14.108Z,1005.31
2018-05-10T01:53:23.218Z,1005.32
2018-05-10T01:54:32.056Z,1005.3
2018-05-10T01:55:41.317Z,1005.3
2018-05-10T01:56:50.437Z,1005.33
2018-05-10T01:57:59.546Z,1005.31
2018-05-10T01:59:08.385Z,1005.3
2018-05-10T02:00:17.222Z,1005.29
2018-05-10T02:01:26.262Z,1005.32
2018-05-10T02:02:35.372Z,1005.3
2018-05-10T02:03:44.210Z,1005.28
2018-05-10T02:04:53.053Z,1005.27
2018-05-10T02:06:01.894Z,1005.23
2018-05-10T02:07:10.829Z,1005.24
2018-05-10T02:08:19.939Z,1005.21
2018-05-10T02:09:28.779Z,1005.21
2018-05-10T02:10:37.616Z,1005.23
2018-05-10T02:11:46.734Z,1005.24
2018-05-10T02:12:55.755Z,1005.2
2018-05-10T02:14:04.834Z,1005.25
2018-05-10T02:15:14.222Z,1005.21
2018-05-10T02:16:23.058Z,1005.21
2018-05-10T02:17:31.895Z,1005.19
2018-05-10T02:18:40.884Z,1005.18
2018-05-10T02:19:49.722Z,1005.18
2018-05-10T02:20:58.558Z,1005.16
2018-05-10T02:22:07.672Z,1005.17
2018-05-10T02:23:16.514Z,1005.16
2018-05-10T02:24:25.700Z,1005.17
2018-05-10T02:25:34.540Z,1005.17
2018-05-10T02:26:43.372Z,1005.18
2018-05-10T02:27:52.481Z,1005.22
2018-05-10T02:29:01.595Z,1005.17
2018-05-10T02:30:10.581Z,1005.2
2018-05-10T02:31:19.694Z,1005.21
2018-05-10T02:32:28.815Z,1005.18
2018-05-10T02:33:37.957Z,1005.19
2018-05-10T02:34:46.766Z,1005.2
2018-05-10T02:35:55.752Z,1005.21
2018-05-10T02:37:05.150Z,1005.22
2018-05-10T02:38:14.262Z,1005.16
2018-05-10T02:39:23.669Z,1005.14
2018-05-10T02:40:33.060Z,1005.16
2018-05-10T02:41:42.271Z,1005.14
2018-05-10T02:42:51.109Z,1005.14
2018-05-10T02:44:00.225Z,1005.22
2018-05-10T02:45:09.340Z,1005.18
2018-05-10T02:46:18.447Z,1005.16
2018-05-10T02:47:27.668Z,1005.18
2018-05-10T02:48:36.505Z,1005.2
2018-05-10T02:49:46.449Z,1005.22
2018-05-10T02:50:55.568Z,1005.22
2018-05-10T02:52:04.405Z,1005.28
2018-05-10T02:53:13.255Z,1005.24
2018-05-10T02:54:22.096Z,1005.27
2018-05-10T02:55:31.298Z,1005.26
2018-05-10T02:56:40.138Z,1005.25
2018-05-10T02:57:48.975Z,1005.24
2018-05-10T02:58:58.613Z,1005.24
2018-05-10T03:00:07.454Z,1005.21
2018-05-10T03:01:16.573Z,1005.24
2018-05-10T03:02:26.236Z,1005.23
2018-05-10T03:03:35.351Z,1005.22
2018-05-10T03:04:44.893Z,1005.22
2018-05-10T03:05:54.002Z,1005.24
2018-05-10T03:07:03.117Z,1005.21
2018-05-10T03:08:12.228Z,1005.25
2018-05-10T03:09:21.622Z,1005.29
2018-05-10T03:10:30.715Z,1005.35
2018-05-10T03:11:39.832Z,1005.3
2018-05-10T03:12:49.233Z,1005.31
2018-05-10T03:13:58.069Z,1005.29
2018-05-10T03:15:07.187Z,1005.27
2018-05-10T03:16:16.449Z,1005.28
2018-05-10T03:17:25.558Z,1005.32
2018-05-10T03:18:34.943Z,1005.3
2018-05-10T03:19:43.783Z,1005.28
2018-05-10T03:20:52.617Z,1005.25
2018-05-10T03:22:01.730Z,1005.24
2018-05-10T03:23:10.840Z,1005.2
2018-05-10T03:24:19.676Z,1005.2
2018-05-10T03:25:28.789Z,1005.17
2018-05-10T03:26:37.630Z,1005.16
2018-05-10T03:27:47.114Z,1005.17
2018-05-10T03:28:55.950Z,1005.14
2018-05-10T03:30:04.795Z,1005.14
2018-05-10T03:31:14.762Z,1005.11
2018-05-10T03:32:23.885Z,1005.13
2018-05-10T03:33:32.722Z,1005.13
2018-05-10T03:34:41.563Z,1005.11
2018-05-10T03:35:50.401Z,1005.1
2018-05-10T03:36:59.234Z,1005.11
2018-05-10T03:38:08.083Z,1005.12
2018-05-10T03:39:17.017Z,1005.1
2018-05-10T03:40:25.904Z,1005.07
2018-05-10T03:41:35.065Z,1005.09
2018-05-10T03:42:43.904Z,1005.07
2018-05-10T03:43:52.738Z,1005.06
2018-05-10T03:45:01.729Z,1005.08
2018-05-10T03:46:10.841Z,1005.06
2018-05-10T03:47:19.678Z,1005.02
2018-05-10T03:48:28.516Z,1005.03
2018-05-10T03:49:37.350Z,1004.98
2018-05-10T03:50:46.287Z,1004.99
2018-05-10T03:51:55.671Z,1005.04
2018-05-10T03:53:04.508Z,1005.01
2018-05-10T03:54:13.343Z,1005.05
2018-05-10T03:55:22.456Z,1005.02
2018-05-10T03:56:31.342Z,1004.99
2018-05-10T03:57:40.455Z,1005
2018-05-10T03:58:49.563Z,1004.96
2018-05-10T03:59:58.403Z,1004.96
2018-05-10T04:01:07.576Z,1004.93
2018-05-10T04:02:16.850Z,1005.02
2018-05-10T04:03:25.685Z,1005.03
2018-05-10T04:04:34.528Z,1005.03
2018-05-10T04:05:43.905Z,1005.06
2018-05-10T04:06:53.019Z,1005.05
2018-05-10T04:08:01.856Z,1005.06
2018-05-10T04:09:10.967Z,1005.05
2018-05-10T04:10:19.803Z,1005.09
2018-05-10T04:11:28.929Z,1005.07
2018-05-10T04:12:38.024Z,1005.06
2018-05-10T04:13:46.860Z,1005.02
2018-05-10T04:14:55.693Z,1004.98
2018-05-10T04:16:04.807Z,1005.06
2018-05-10T04:17:13.643Z,1005.1
2018-05-10T04:18:22.755Z,1005.16
2018-05-10T04:19:31.968Z,1005.09
2018-05-10T04:20:41.077Z,1005.06
2018-05-10T04:21:49.914Z,1005.14
2018-05-10T04:22:58.750Z,1005.22
2018-05-10T04:24:07.585Z,1005.22
2018-05-10T04:25:16.625Z,1005.2
2018-05-10T04:26:25.460Z,1005.2
2018-05-10T04:27:34.295Z,1005.19
2018-05-10T04:28:43.134Z,1005.23
2018-05-10T04:29:51.972Z,1005.24
2018-05-10T04:31:00.961Z,1005.28
2018-05-10T04:32:10.073Z,1005.25
2018-05-10T04:33:18.911Z,1005.26
2018-05-10T04:34:27.749Z,1005.32
2018-05-10T04:35:36.587Z,1005.33
2018-05-10T04:36:46.111Z,1005.34
2018-05-10T04:37:55.302Z,1005.34
2018-05-10T04:39:04.411Z,1005.29
2018-05-10T04:40:13.247Z,1005.28
2018-05-10T04:41:22.085Z,1005.3
2018-05-10T04:42:31.023Z,1005.28
2018-05-10T04:43:39.858Z,1005.29
2018-05-10T04:44:48.995Z,1005.31
2018-05-10T04:45:57.835Z,1005.33
2018-05-10T04:47:06.679Z,1005.36
2018-05-10T04:48:15.969Z,1005.35
2018-05-10T04:49:24.806Z,1005.38
2018-05-10T04:50:33.644Z,1005.36
2018-05-10T04:51:42.482Z,1005.43
2018-05-10T04:52:51.319Z,1005.37
2018-05-10T04:54:00.154Z,1005.38
2018-05-10T04:55:08.991Z,1005.38
2018-05-10T04:56:18.108Z,1005.36
2018-05-10T04:57:26.937Z,1005.33
2018-05-10T04:58:35.773Z,1005.3
2018-05-10T04:59:44.612Z,1005.31
2018-05-10T05:00:53.453Z,1005.34
2018-05-10T05:02:02.284Z,1005.34
2018-05-10T05:03:11.118Z,1005.35
2018-05-10T05:04:20.225Z,1005.34
2018-05-10T05:05:29.163Z,1005.36
2018-05-10T05:06:38.276Z,1005.34
2018-05-10T05:07:47.114Z,1005.34
2018-05-10T05:08:56.033Z,1005.29
2018-05-10T05:10:05.194Z,1005.32
2018-05-10T05:11:14.132Z,1005.34
2018-05-10T05:12:22.969Z,1005.32
2018-05-10T05:13:31.805Z,1005.37
2018-05-10T05:14:40.642Z,1005.38
2018-05-10T05:15:49.482Z,1005.41
2018-05-10T05:16:58.470Z,1005.37
2018-05-10T05:18:07.587Z,1005.34
2018-05-10T05:19:16.715Z,1005.27
2018-05-10T05:20:25.552Z,1005.23
2018-05-10T05:21:34.410Z,1005.27
2018-05-10T05:22:43.376Z,1005.26
2018-05-10T05:23:52.213Z,1005.23
2018-05-10T05:25:01.046Z,1005.23
2018-05-10T05:26:09.886Z,1005.21
2018-05-10T05:27:19.273Z,1005.21
2018-05-10T05:28:28.112Z,1005.21
2018-05-10T05:29:36.947Z,1005.24
2018-05-10T05:30:46.058Z,1005.25
2018-05-10T05:31:55.459Z,1005.26
2018-05-10T05:33:04.575Z,1005.31
2018-05-10T05:34:13.609Z,1005.27
2018-05-10T05:35:22.449Z,1005.29
2018-05-10T05:36:31.324Z,1005.27
2018-05-10T05:37:41.187Z,1005.25
2018-05-10T05:38:50.416Z,1005.2
2018-05-10T05:39:59.521Z,1005.22
2018-05-10T05:41:08.809Z,1005.24
2018-05-10T05:42:18.799Z,1005.22
2018-05-10T05:43:27.793Z,1005.24
2018-05-10T05:44:36.484Z,1005.25
2018-05-10T05:45:45.372Z,1005.26
2018-05-10T05:46:54.213Z,1005.27
2018-05-10T05:48:03.045Z,1005.26
2018-05-10T05:49:11.882Z,1005.29
2018-05-10T05:50:20.724Z,1005.31
2018-05-10T05:51:29.775Z,1005.32
2018-05-10T05:52:38.694Z,1005.38
2018-05-10T05:53:47.457Z,1005.35
2018-05-10T05:54:56.298Z,1005.37
2018-05-10T05:56:05.517Z,1005.42
2018-05-10T05:57:14.454Z,1005.42
2018-05-10T05:58:23.564Z,1005.44
2018-05-10T05:59:32.403Z,1005.45
2018-05-10T06:00:41.514Z,1005.45
2018-05-10T06:01:50.353Z,1005.46
2018-05-10T06:02:59.799Z,1005.48
2018-05-10T06:04:08.636Z,1005.49
2018-05-10T06:05:17.754Z,1005.52
2018-05-10T06:06:26.905Z,1005.54
2018-05-10T06:07:35.834Z,1005.59
2018-05-10T06:08:44.760Z,1005.55
2018-05-10T06:09:53.929Z,1005.56
2018-05-10T06:11:02.779Z,1005.49
2018-05-10T06:12:11.888Z,1005.53
2018-05-10T06:13:20.725Z,1005.51
2018-05-10T06:14:29.765Z,1005.53
2018-05-10T06:15:38.617Z,1005.54
2018-05-10T06:16:47.441Z,1005.49
2018-05-10T06:17:56.555Z,1005.5
2018-05-10T06:19:05.393Z,1005.51
2018-05-10T06:20:14.655Z,1005.52
2018-05-10T06:21:23.798Z,1005.55
2018-05-10T06:22:32.619Z,1005.57
2018-05-10T06:23:41.734Z,1005.55
2018-05-10T06:24:50.726Z,1005.61
2018-05-10T06:26:00.280Z,1005.64
2018-05-10T06:27:09.117Z,1005.68
2018-05-10T06:28:17.954Z,1005.68
2018-05-10T06:29:26.790Z,1005.68
2018-05-10T06:30:35.628Z,1005.71
2018-05-10T06:31:44.465Z,1005.73
2018-05-10T06:32:53.302Z,1005.73
2018-05-10T06:34:02.483Z,1005.76
2018-05-10T06:35:11.539Z,1005.71
2018-05-10T06:36:20.382Z,1005.74
2018-05-10T06:37:29.270Z,1005.77
2018-05-10T06:38:38.106Z,1005.82
2018-05-10T06:39:47.218Z,1005.79
2018-05-10T06:40:56.061Z,1005.78
2018-05-10T06:42:05.245Z,1005.82
2018-05-10T06:43:14.133Z,1005.77
2018-05-10T06:44:23.252Z,1005.76
2018-05-10T06:45:32.379Z,1005.77
2018-05-10T06:46:41.519Z,1005.83
2018-05-10T06:47:51.078Z,1005.8
2018-05-10T06:49:00.198Z,1005.78
2018-05-10T06:50:09.370Z,1005.81
2018-05-10T06:51:18.207Z,1005.78
2018-05-10T06:52:27.047Z,1005.74
2018-05-10T06:53:35.888Z,1005.68
2018-05-10T06:54:44.976Z,1005.72
2018-05-10T06:55:53.686Z,1005.73
2018-05-10T06:57:02.803Z,1005.74
2018-05-10T06:58:11.647Z,1005.73
2018-05-10T06:59:20.801Z,1005.76
2018-05-10T07:00:29.692Z,1005.84
2018-05-10T07:01:38.803Z,1005.83
2018-05-10T07:02:47.932Z,1005.85
2018-05-10T07:03:57.337Z,1005.79
2018-05-10T07:05:06.241Z,1005.77
2018-05-10T07:06:15.179Z,1005.75
2018-05-10T07:07:24.084Z,1005.8
2018-05-10T07:08:32.961Z,1005.82
2018-05-10T07:09:42.369Z,1005.83
2018-05-10T07:10:51.428Z,1005.87
2018-05-10T07:12:00.416Z,1005.86
2018-05-10T07:13:09.292Z,1005.91
2018-05-10T07:14:19.443Z,1005.84
2018-05-10T07:15:28.286Z,1005.9
2018-05-10T07:16:37.125Z,1005.96
2018-05-10T07:17:46.657Z,1005.96
2018-05-10T07:18:55.496Z,1005.97
2018-05-10T07:20:04.335Z,1005.98
2018-05-10T07:21:13.177Z,1005.98
2018-05-10T07:22:22.028Z,1005.98
2018-05-10T07:23:31.145Z,1005.94
2018-05-10T07:24:39.983Z,1005.98
2018-05-10T07:25:48.847Z,1005.97
2018-05-10T07:26:57.685Z,1005.94
2018-05-10T07:28:06.588Z,1005.94
2018-05-10T07:29:16.053Z,1005.94
2018-05-10T07:30:25.989Z,1005.93
2018-05-10T07:31:35.105Z,1005.93
2018-05-10T07:32:43.943Z,1005.96
2018-05-10T07:33:52.786Z,1005.99
2018-05-10T07:35:01.720Z,1006.02
2018-05-10T07:36:10.567Z,1005.97
2018-05-10T07:37:19.407Z,1005.98
2018-05-10T07:38:28.251Z,1005.99
2018-05-10T07:39:37.638Z,1005.99
2018-05-10T07:40:46.901Z,1006.03
2018-05-10T07:41:55.795Z,1006
2018-05-10T07:43:04.965Z,1005.98
2018-05-10T07:44:14.087Z,1005.99
2018-05-10T07:45:22.928Z,1006.02
2018-05-10T07:46:32.117Z,1006
2018-05-10T07:47:41.243Z,1006
2018-05-10T07:48:50.356Z,1006.03
2018-05-10T07:49:59.195Z,1006.06
2018-05-10T07:51:08.312Z,1006.03
2018-05-10T07:52:17.153Z,1006.04
2018-05-10T07:53:25.993Z,1006.03
2018-05-10T07:54:35.118Z,1006.05
2018-05-10T07:55:44.263Z,1006.08
2018-05-10T07:56:53.164Z,1006.06
2018-05-10T07:58:02.169Z,1006.12
2018-05-10T07:59:11.019Z,1006.11
2018-05-10T08:00:19.869Z,1006.12
2018-05-10T08:01:29.024Z,1006.14
2018-05-10T08:02:37.879Z,1006.14
2018-05-10T08:03:47.002Z,1006.18
2018-05-10T08:04:55.852Z,1006.16
2018-05-10T08:06:04.699Z,1006.11
2018-05-10T08:07:13.540Z,1006.14
2018-05-10T08:08:22.381Z,1006.17
2018-05-10T08:09:31.845Z,1006.11
2018-05-10T08:10:40.965Z,1006.13
2018-05-10T08:11:49.806Z,1006.19
2018-05-10T08:12:58.646Z,1006.21
2018-05-10T08:14:07.491Z,1006.26
2018-05-10T08:15:16.350Z,1006.25
2018-05-10T08:16:25.200Z,1006.31
2018-05-10T08:17:34.054Z,1006.33
2018-05-10T08:18:43.181Z,1006.35
2018-05-10T08:19:52.037Z,1006.4
2018-05-10T08:21:01.039Z,1006.4
2018-05-10T08:22:09.896Z,1006.41
2018-05-10T08:23:18.747Z,1006.39
2018-05-10T08:24:27.598Z,1006.42
2018-05-10T08:25:36.471Z,1006.38
2018-05-10T08:26:45.952Z,1006.4
2018-05-10T08:27:55.073Z,1006.39
2018-05-10T08:29:03.922Z,1006.43
2018-05-10T08:30:12.883Z,1006.43
2018-05-10T08:31:22.009Z,1006.42
2018-05-10T08:34:09.752Z,1006.47
2018-05-10T08:35:18.876Z,1006.44
2018-05-10T08:36:27.829Z,1006.47
2018-05-10T08:37:36.736Z,1006.44
2018-05-10T08:38:45.590Z,1006.44
2018-05-10T08:39:54.438Z,1006.46
2018-05-10T08:41:03.287Z,1006.49
2018-05-10T08:42:12.429Z,1006.53
2018-05-10T08:43:21.381Z,1006.56
2018-05-10T08:44:30.218Z,1006.6
2018-05-10T08:45:39.193Z,1006.64
2018-05-10T08:46:48.031Z,1006.64
2018-05-10T08:47:57.155Z,1006.62
2018-05-10T08:49:06.812Z,1006.59
2018-05-10T08:50:15.670Z,1006.65
2018-05-10T08:51:24.788Z,1006.68
2018-05-10T08:52:34.454Z,1006.65
2018-05-10T08:53:43.291Z,1006.67
2018-05-10T08:54:52.504Z,1006.68
2018-05-10T08:56:01.621Z,1006.67
2018-05-10T08:57:10.458Z,1006.67
2018-05-10T08:58:19.298Z,1006.71
2018-05-10T08:59:28.138Z,1006.7
2018-05-10T09:00:36.982Z,1006.72
2018-05-10T09:01:45.830Z,1006.81
2018-05-10T09:02:54.952Z,1006.8
2018-05-10T09:04:03.889Z,1006.79
2018-05-10T09:05:12.738Z,1006.82
2018-05-10T09:06:21.585Z,1006.84
2018-05-10T09:07:30.732Z,1006.86
2018-05-10T09:08:39.548Z,1006.89
2018-05-10T09:09:48.738Z,1006.88
2018-05-10T09:10:57.855Z,1006.9
2018-05-10T09:12:06.971Z,1006.9
2018-05-10T09:13:16.084Z,1006.94
2018-05-10T09:14:24.927Z,1006.99
2018-05-10T09:15:33.765Z,1007.03
2018-05-10T09:16:42.606Z,1007.06
2018-05-10T09:17:52.077Z,1007.04
2018-05-10T09:19:01.263Z,1007.05
2018-05-10T09:20:10.378Z,1007.17
2018-05-10T09:21:19.154Z,1007.06
2018-05-10T09:22:27.997Z,1007.11
2018-05-10T09:23:37.206Z,1007.14
2018-05-10T09:24:46.047Z,1007.17
2018-05-10T09:25:55.250Z,1007.18
2018-05-10T09:27:04.421Z,1007.18
2018-05-10T09:28:13.261Z,1007.23
2018-05-10T09:29:22.153Z,1007.24
2018-05-10T09:30:30.996Z,1007.35
2018-05-10T09:31:39.977Z,1007.36
2018-05-10T09:32:48.949Z,1007.36
2018-05-10T09:33:57.788Z,1007.43
2018-05-10T09:35:06.785Z,1007.4
2018-05-10T09:36:15.901Z,1007.46
2018-05-10T09:37:24.740Z,1007.47
2018-05-10T09:38:33.577Z,1007.46
2018-05-10T09:39:42.416Z,1007.44
2018-05-10T09:40:51.309Z,1007.41
2018-05-10T09:42:00.423Z,1007.58
2018-05-10T09:43:09.264Z,1007.57
2018-05-10T09:44:18.381Z,1007.56
2018-05-10T09:45:27.505Z,1007.6
2018-05-10T09:46:36.384Z,1007.63
2018-05-10T09:47:45.224Z,1007.64
2018-05-10T09:48:54.062Z,1007.59
2018-05-10T09:50:03.177Z,1007.56
2018-05-10T09:51:12.297Z,1007.59
2018-05-10T09:52:21.238Z,1007.59
2018-05-10T09:53:30.076Z,1007.6
2018-05-10T09:54:38.914Z,1007.68
2018-05-10T09:55:48.030Z,1007.62
2018-05-10T09:56:57.143Z,1007.72
2018-05-10T09:58:06.350Z,1007.75
2018-05-10T09:59:15.177Z,1007.72
2018-05-10T10:00:24.293Z,1007.71
2018-05-10T10:01:33.469Z,1007.69
2018-05-10T10:02:42.585Z,1007.7
2018-05-10T10:03:51.577Z,1007.76
2018-05-10T10:05:00.416Z,1007.77
2018-05-10T10:06:09.274Z,1007.82
2018-05-10T10:07:18.473Z,1007.81
2018-05-10T10:08:27.316Z,1007.85
2018-05-10T10:09:36.308Z,1007.93
2018-05-10T10:10:45.147Z,1007.88
2018-05-10T10:11:53.986Z,1007.8
2018-05-10T10:13:03.174Z,1007.85
2018-05-10T10:14:11.943Z,1007.95
2018-05-10T10:15:20.834Z,1007.9
2018-05-10T10:16:29.676Z,1007.94
2018-05-10T10:17:38.541Z,1007.94
2018-05-10T10:18:47.359Z,1007.98
2018-05-10T10:19:56.199Z,1007.99
2018-05-10T10:21:05.587Z,1008.01
2018-05-10T10:22:14.435Z,1008.07
2018-05-10T10:23:23.550Z,1008.07
2018-05-10T10:24:32.672Z,1008.1
2018-05-10T10:25:41.785Z,1008.01
2018-05-10T10:26:50.875Z,1008.02
2018-05-10T10:27:59.713Z,1008.01
2018-05-10T10:29:08.553Z,1008.01
2018-05-10T10:30:17.393Z,1008.02
2018-05-10T10:31:26.235Z,1008.03
2018-05-10T10:32:35.076Z,1008.03
2018-05-10T10:33:44.201Z,1008.07
2018-05-10T10:34:53.044Z,1008.09
2018-05-10T10:36:01.885Z,1008.13
2018-05-10T10:37:11.014Z,1008.11
2018-05-10T10:38:19.997Z,1008.1
2018-05-10T10:39:28.794Z,1008.14
2018-05-10T10:40:37.635Z,1008.12
2018-05-10T10:41:46.751Z,1008.17
2018-05-10T10:42:55.591Z,1008.07
2018-05-10T10:44:04.864Z,1008.1
2018-05-10T10:45:14.299Z,1008.11
2018-05-10T10:46:23.452Z,1008.16
2018-05-10T10:47:32.294Z,1008.2
2018-05-10T10:48:41.135Z,1008.19
2018-05-10T10:49:50.025Z,1008.25
2018-05-10T10:50:59.192Z,1008.23
2018-05-10T10:52:07.996Z,1008.24
2018-05-10T10:53:16.838Z,1008.24
2018-05-10T10:54:25.965Z,1008.3
2018-05-10T10:55:34.957Z,1008.39
2018-05-10T10:56:43.797Z,1008.32
2018-05-10T10:57:52.637Z,1008.28
2018-05-10T10:59:01.474Z,1008.33
2018-05-10T11:00:10.597Z,1008.36
2018-05-10T11:01:19.434Z,1008.38
2018-05-10T11:02:28.275Z,1008.41
2018-05-10T11:03:37.118Z,1008.43
2018-05-10T11:04:45.962Z,1008.49
2018-05-10T11:05:54.798Z,1008.44
2018-05-10T11:07:03.694Z,1008.47
2018-05-10T11:08:12.860Z,1008.51
2018-05-10T11:09:21.651Z,1008.51
2018-05-10T11:10:30.492Z,1008.5
2018-05-10T11:11:39.334Z,1008.64
2018-05-10T11:12:48.174Z,1008.61
2018-05-10T11:13:57.015Z,1008.63
2018-05-10T11:15:05.944Z,1008.75
2018-05-10T11:16:15.141Z,1008.68
2018-05-10T11:17:23.984Z,1008.68
2018-05-10T11:18:33.152Z,1008.67
2018-05-10T11:19:41.992Z,1008.8
2018-05-10T11:20:51.201Z,1008.71
2018-05-10T11:22:00.614Z,1008.73
2018-05-10T11:23:09.729Z,1008.87
2018-05-10T11:24:18.571Z,1008.83
2018-05-10T11:25:27.412Z,1008.84
2018-05-10T11:26:36.531Z,1008.96
2018-05-10T11:27:45.646Z,1008.88
2018-05-10T11:28:54.491Z,1009.02
2018-05-10T11:30:03.380Z,1008.99
2018-05-10T11:31:12.224Z,1008.99
2018-05-10T11:32:21.070Z,1009.03
2018-05-10T11:33:29.904Z,1009.03
2018-05-10T11:34:39.020Z,1009.04
2018-05-10T11:35:48.291Z,1009.05
2018-05-10T11:36:57.133Z,1009.07
2018-05-10T11:38:06.252Z,1009.07
2018-05-10T11:39:15.093Z,1009.12
2018-05-10T11:40:23.932Z,1009.06
2018-05-10T11:41:32.873Z,1009.14
2018-05-10T11:42:41.865Z,1009.14
2018-05-10T11:43:50.711Z,1009.18
2018-05-10T11:44:59.551Z,1009.16
2018-05-10T11:46:08.396Z,1009.28
2018-05-10T11:47:17.390Z,1009.29
2018-05-10T11:48:26.239Z,1009.29
2018-05-10T11:49:35.074Z,1009.22
2018-05-10T11:50:43.914Z,1009.33
2018-05-10T11:51:53.031Z,1009.3
2018-05-10T11:53:02.073Z,1009.38
2018-05-10T11:54:10.916Z,1009.3
2018-05-10T11:55:19.761Z,1009.4
2018-05-10T11:56:28.600Z,1009.4
2018-05-10T11:57:37.443Z,1009.43
2018-05-10T11:58:46.938Z,1009.47
2018-05-10T11:59:56.603Z,1009.54
2018-05-10T12:01:05.447Z,1009.53
2018-05-10T12:02:14.290Z,1009.61
2018-05-10T12:03:23.130Z,1009.59
2018-05-10T12:04:32.321Z,1009.57
2018-05-10T12:05:41.441Z,1009.51
2018-05-10T12:06:50.282Z,1009.56
2018-05-10T12:07:59.127Z,1009.56
2018-05-10T12:09:08.518Z,1009.53
2018-05-10T12:10:17.993Z,1009.57
2018-05-10T12:11:26.835Z,1009.59
2018-05-10T12:12:35.677Z,1009.63
2018-05-10T12:13:44.520Z,1009.63
2018-05-10T12:14:53.363Z,1009.67
2018-05-10T12:16:02.306Z,1009.75
2018-05-10T12:17:11.423Z,1009.71
2018-05-10T12:18:20.254Z,1009.77
2018-05-10T12:19:29.375Z,1009.78
2018-05-10T12:20:38.211Z,1009.77
2018-05-10T12:21:47.203Z,1009.82
2018-05-10T12:22:56.045Z,1009.79
2018-05-10T12:24:04.883Z,1009.88
2018-05-10T12:25:14.008Z,1009.85
2018-05-10T12:26:22.850Z,1009.85
2018-05-10T12:27:32.664Z,1009.93
2018-05-10T12:28:41.505Z,1009.84
2018-05-10T12:29:50.344Z,1009.88
2018-05-10T12:30:59.230Z,1009.94
2018-05-10T12:32:08.024Z,1009.94
2018-05-10T12:33:17.264Z,1010.05
2018-05-10T12:34:26.381Z,1009.98
2018-05-10T12:35:35.221Z,1010.02
2018-05-10T12:36:44.057Z,1010.15
2018-05-10T12:37:53.180Z,1010.13
2018-05-10T12:39:02.018Z,1010.16
2018-05-10T12:40:10.858Z,1010.12
2018-05-10T12:41:19.974Z,1010.15
2018-05-10T12:42:28.812Z,1010.32
2018-05-10T12:43:37.929Z,1010.23
2018-05-10T12:44:47.146Z,1010.28
2018-05-10T12:45:55.983Z,1010.28
2018-05-10T12:47:04.823Z,1010.28
2018-05-10T12:48:13.664Z,1010.36
2018-05-10T12:49:22.504Z,1010.38
2018-05-10T12:50:31.703Z,1010.44
2018-05-10T12:51:40.535Z,1010.45
2018-05-10T12:52:49.920Z,1010.52
2018-05-10T12:53:58.758Z,1010.65
2018-05-10T12:55:07.599Z,1010.55
2018-05-10T12:56:16.570Z,1010.62
2018-05-10T12:57:25.376Z,1010.65
2018-05-10T12:58:34.217Z,1010.59
2018-05-10T12:59:43.056Z,1010.61
2018-05-10T13:00:51.990Z,1010.62
2018-05-10T13:02:00.835Z,1010.66
2018-05-10T13:03:09.672Z,1010.62
2018-05-10T13:04:18.509Z,1010.64
2018-05-10T13:05:27.349Z,1010.71
2018-05-10T13:06:36.467Z,1010.84
2018-05-10T13:07:45.994Z,1010.82
2018-05-10T13:08:54.832Z,1010.86
2018-05-10T13:10:03.669Z,1010.79
2018-05-10T13:11:12.521Z,1010.85
2018-05-10T13:12:21.636Z,1010.84
2018-05-10T13:13:31.070Z,1010.9
2018-05-10T13:14:40.184Z,1010.96
2018-05-10T13:15:49.023Z,1010.98
2018-05-10T13:16:58.419Z,1010.98
2018-05-10T13:18:07.537Z,1011
2018-05-10T13:19:16.384Z,1010.97
2018-05-10T13:20:25.525Z,1011.01
2018-05-10T13:21:34.363Z,1011.06
2018-05-10T13:22:43.205Z,1011.04
2018-05-10T13:23:52.042Z,1011.06
2018-05-10T13:25:00.880Z,1011.12
2018-05-10T13:26:10.017Z,1011.11
2018-05-10T13:27:18.952Z,1011.16
2018-05-10T13:28:28.520Z,1011.18
2018-05-10T13:29:37.358Z,1011.21
2018-05-10T13:30:46.297Z,1011.27
2018-05-10T13:31:55.135Z,1011.29
2018-05-10T13:33:03.979Z,1011.34
2018-05-10T13:34:12.814Z,1011.37
2018-05-10T13:35:21.924Z,1011.29
2018-05-10T13:36:30.811Z,1011.42
2018-05-10T13:37:39.931Z,1011.42
2018-05-10T13:38:48.819Z,1011.53
2018-05-10T13:39:57.931Z,1011.72
2018-05-10T13:41:06.772Z,1011.49
2018-05-10T13:42:15.882Z,1011.53
2018-05-10T13:43:24.719Z,1011.62
2018-05-10T13:44:33.557Z,1011.66
2018-05-10T13:45:42.395Z,1011.65
2018-05-10T13:46:51.231Z,1011.61
2018-05-10T13:48:00.167Z,1011.6
2018-05-10T13:49:09.006Z,1011.67
2018-05-10T13:50:18.247Z,1011.63
2018-05-10T13:51:27.640Z,1011.65
2018-05-10T13:52:36.756Z,1011.71
2018-05-10T13:53:45.645Z,1011.71
2018-05-10T13:54:54.481Z,1011.71
2018-05-10T13:56:03.318Z,1011.77
2018-05-10T13:57:12.154Z,1011.74
2018-05-10T13:58:20.999Z,1011.83
2018-05-10T13:59:29.986Z,1011.92